Terminal Aerodrome Forecast
Issued by NWS Wichita, KS

Home | Current Version | Previous Version | Text Only | Print | Product List | Glossary Off
Versions: 1 2 3 4 5 6 7 8 9 10 11 12 13 14 15 16 17 18 19 20 21 22

349
FTUS43 KICT 292320
TAFICT
TAF
KICT 292320Z 3000/3024 06019G24KT P6SM VCSH SCT008 OVC012
     FM300200 12014KT 4SM BR VCTS OVC008CB
     FM300800 30010KT 4SM BR OVC008
     FM301400 27014KT P6SM SCT035
     FM301800 25013KT P6SM SCT200=

USA.gov is the U.S. government's official web portal to all federal, state and local government web resources and services.